Time;durP1;ratioP1;P1;durP2;ratioP2;P2;SDS_P1;SDS_P2;PMS_P1;PMS_P2;Temp;Humidity;BMP_temperature;BMP_pressure;BME280_temperature;BME280_humidity;BME280_pressure;Samples;Min_cycle;Max_cycle;Signal;HPM_P1;HPM_P2
2022/04/22 00:00:01;;;;;;;17.98;12.85;;;10.60;99.90;;;;;;5093034;28;20051;-70
2022/04/22 00:02:27;;;;;;;19.23;12.73;;;10.70;99.90;;;;;;5093236;28;20398;-70
2022/04/22 00:04:52;;;;;;;19.27;13.65;;;10.60;99.90;;;;;;5092987;28;20034;-69
2022/04/22 00:07:18;;;;;;;22.35;13.75;;;10.60;99.90;;;;;;5092891;28;20488;-70
2022/04/22 00:09:43;;;;;;;19.50;13.85;;;10.60;99.90;;;;;;5092923;28;20028;-70
2022/04/22 00:12:09;;;;;;;20.88;13.70;;;10.60;99.90;;;;;;5092918;28;20095;-70
2022/04/22 00:14:35;;;;;;;19.90;13.38;;;10.70;99.90;;;;;;5091667;28;20115;-70
2022/04/22 00:17:00;;;;;;;17.65;12.73;;;10.60;99.90;;;;;;5092957;28;20063;-70
2022/04/22 00:19:26;;;;;;;22.10;14.13;;;10.60;99.90;;;;;;5092831;28;20367;-70
2022/04/22 00:21:53;;;;;;;19.13;13.05;;;10.60;99.90;;;;;;5091632;28;20043;-70
2022/04/22 00:24:19;;;;;;;19.17;12.02;;;10.70;99.90;;;;;;5092751;28;20039;-70
2022/04/22 00:26:45;;;;;;;19.15;12.98;;;10.70;99.90;;;;;;5092573;28;20421;-70
2022/04/22 00:29:11;;;;;;;21.95;13.88;;;10.60;99.90;;;;;;5091387;28;20031;-70
2022/04/22 00:31:37;;;;;;;23.38;14.27;;;10.60;99.90;;;;;;5092765;28;20023;-70
2022/04/22 00:34:03;;;;;;;25.40;14.13;;;10.70;99.90;;;;;;5076282;28;20024;-70
2022/04/22 00:36:29;;;;;;;24.60;14.15;;;10.60;99.90;;;;;;5096466;28;20474;-70
2022/04/22 00:38:54;;;;;;;24.80;16.08;;;10.60;99.90;;;;;;5096293;28;20106;-69
2022/04/22 00:41:20;;;;;;;24.05;15.73;;;10.60;99.90;;;;;;5096257;28;20028;-70
2022/04/22 00:43:50;;;;;;;21.08;14.98;;;10.70;99.90;;;;;;5094909;28;20067;-70
2022/04/22 00:46:16;;;;;;;22.70;15.55;;;10.70;99.90;;;;;;5096094;28;20085;-70
2022/04/22 00:48:43;;;;;;;24.23;16.50;;;10.70;99.90;;;;;;5094915;28;20024;-70
2022/04/22 00:51:10;;;;;;;27.80;16.05;;;10.60;99.90;;;;;;5096301;28;20027;-70
2022/04/22 00:53:37;;;;;;;25.30;15.38;;;10.60;99.90;;;;;;5096028;28;20020;-70
2022/04/22 00:56:04;;;;;;;27.13;16.60;;;10.60;99.90;;;;;;5096038;28;20106;-70
2022/04/22 00:58:31;;;;;;;25.00;16.73;;;10.60;99.90;;;;;;5096045;28;20386;-70
2022/04/22 01:00:56;;;;;;;24.73;16.35;;;10.60;99.90;;;;;;5095950;28;20490;-69
2022/04/22 01:03:22;;;;;;;26.52;16.83;;;10.60;99.90;;;;;;5095831;28;20128;-69
2022/04/22 01:11:22;;;;;;;27.05;16.88;;;10.50;99.90;;;;;;5095537;28;20072;-69
2022/04/22 01:13:47;;;;;;;27.38;17.63;;;10.50;99.90;;;;;;5095685;28;20024;-69
2022/04/22 01:16:13;;;;;;;26.98;17.08;;;10.50;99.90;;;;;;5094447;28;20077;-70
2022/04/22 01:18:38;;;;;;;27.45;16.92;;;10.50;99.90;;;;;;5095552;28;20390;-69
2022/04/22 01:21:04;;;;;;;28.38;17.08;;;10.50;99.90;;;;;;5095444;28;20024;-69
2022/04/22 01:23:30;;;;;;;28.85;18.00;;;10.40;99.90;;;;;;5095421;28;20099;-69
2022/04/22 01:25:57;;;;;;;31.88;18.05;;;10.40;99.90;;;;;;5095093;28;20117;-70
2022/04/22 01:28:23;;;;;;;31.20;17.40;;;10.40;99.90;;;;;;5094063;28;20020;-70
2022/04/22 01:30:56;;;;;;;26.08;17.60;;;10.40;99.90;;;;;;5095315;28;20047;-69
2022/04/22 01:33:21;;;;;;;27.67;17.48;;;10.40;99.90;;;;;;5095250;28;20386;-70
2022/04/22 01:35:47;;;;;;;27.85;17.75;;;10.30;99.90;;;;;;5095201;28;20016;-69
2022/04/22 01:38:12;;;;;;;27.77;18.48;;;10.30;99.90;;;;;;5095128;28;20020;-70
2022/04/22 01:40:38;;;;;;;26.80;17.60;;;10.30;99.90;;;;;;5095162;28;20020;-70
2022/04/22 01:43:04;;;;;;;28.83;18.17;;;10.30;99.90;;;;;;5095056;28;20099;-70
2022/04/22 01:45:30;;;;;;;26.50;17.55;;;10.30;99.90;;;;;;5095108;28;20016;-70
2022/04/22 01:47:56;;;;;;;29.70;17.88;;;10.30;99.90;;;;;;5094865;28;20024;-70
2022/04/22 01:50:22;;;;;;;30.35;18.30;;;10.30;99.90;;;;;;5094911;28;20095;-70
2022/04/22 01:52:47;;;;;;;27.33;18.13;;;10.30;99.90;;;;;;5093678;28;20024;-70
2022/04/22 01:55:13;;;;;;;31.45;19.92;;;10.30;99.90;;;;;;5094829;28;20407;-69
2022/04/22 01:57:38;;;;;;;28.98;18.98;;;10.30;99.90;;;;;;5094819;28;20072;-70
2022/04/22 02:00:05;;;;;;;26.38;18.17;;;10.30;99.90;;;;;;5094858;28;20124;-70
2022/04/22 02:02:30;;;;;;;30.73;19.05;;;10.30;99.90;;;;;;5094794;28;20422;-70
2022/04/22 02:04:56;;;;;;;28.00;18.98;;;10.20;99.90;;;;;;5094639;28;20137;-70
2022/04/22 02:07:21;;;;;;;32.25;21.75;;;10.20;99.90;;;;;;5094560;28;20039;-70
2022/04/22 02:09:47;;;;;;;32.40;21.67;;;10.20;99.90;;;;;;5094838;28;20036;-70
2022/04/22 02:12:13;;;;;;;30.92;21.50;;;10.20;99.90;;;;;;5094540;28;20035;-69
2022/04/22 02:14:38;;;;;;;31.45;21.75;;;10.10;99.90;;;;;;5094730;28;20021;-70
2022/04/22 02:17:04;;;;;;;30.55;21.42;;;10.20;99.90;;;;;;5094415;28;20028;-70
2022/04/22 02:19:30;;;;;;;36.15;21.77;;;10.20;99.90;;;;;;5094433;28;20390;-69
2022/04/22 02:21:55;;;;;;;34.10;22.80;;;10.20;99.90;;;;;;5094238;28;20032;-70
2022/04/22 02:24:21;;;;;;;33.28;22.77;;;10.10;99.90;;;;;;5094290;28;20035;-69
2022/04/22 02:29:32;;;;;;;33.92;22.90;;;10.00;99.90;;;;;;5094007;28;20095;-69
2022/04/22 02:31:57;;;;;;;34.88;22.80;;;10.00;99.90;;;;;;5094244;28;20063;-69
2022/04/22 02:34:23;;;;;;;36.03;23.23;;;10.00;99.90;;;;;;5094086;28;20364;-70
2022/04/22 02:36:50;;;;;;;37.83;24.02;;;10.00;99.90;;;;;;5092970;28;20439;-70
2022/04/22 02:39:16;;;;;;;38.60;25.17;;;10.00;99.90;;;;;;5094064;28;20109;-70
2022/04/22 02:47:13;;;;;;;40.85;25.63;;;10.10;99.90;;;;;;5092553;28;20100;-70
2022/04/22 02:49:43;;;;;;;39.45;25.95;;;10.10;99.90;;;;;;5093911;28;20044;-70
2022/04/22 02:52:09;;;;;;;38.00;26.42;;;10.10;99.90;;;;;;5093781;28;20024;-70
2022/04/22 02:54:34;;;;;;;37.20;25.58;;;10.00;99.90;;;;;;5093825;28;20043;-70
2022/04/22 02:57:00;;;;;;;41.70;26.48;;;10.10;99.90;;;;;;5093367;28;20024;-70
2022/04/22 02:59:27;;;;;;;40.63;27.33;;;10.00;99.90;;;;;;5092432;28;20024;-70
2022/04/22 03:01:54;;;;;;;39.92;28.15;;;10.10;99.90;;;;;;5093595;28;20028;-70
2022/04/22 03:04:19;;;;;;;41.92;27.88;;;10.00;99.90;;;;;;5092428;28;20024;-70
2022/04/22 03:06:45;;;;;;;43.47;28.70;;;10.10;99.90;;;;;;5092365;28;20028;-70
2022/04/22 03:09:10;;;;;;;40.53;28.25;;;10.00;99.90;;;;;;5093542;28;20031;-70
2022/04/22 03:11:36;;;;;;;41.88;29.13;;;10.10;99.90;;;;;;5093552;28;20024;-70
2022/04/22 03:14:03;;;;;;;44.10;29.55;;;10.10;99.90;;;;;;5092340;28;20119;-70
2022/04/22 03:16:29;;;;;;;46.40;30.45;;;10.00;99.90;;;;;;5093529;28;20020;-70
2022/04/22 03:18:55;;;;;;;47.42;31.63;;;10.00;99.90;;;;;;5093393;28;20043;-70
2022/04/22 03:21:22;;;;;;;43.40;31.00;;;10.00;99.90;;;;;;5092075;28;20107;-70
2022/04/22 03:23:48;;;;;;;47.15;31.23;;;10.00;99.90;;;;;;5093548;28;20126;-70
2022/04/22 03:26:13;;;;;;;46.50;30.30;;;10.00;99.90;;;;;;5093100;28;20050;-70
2022/04/22 03:28:39;;;;;;;47.80;32.45;;;10.10;99.90;;;;;;5093248;28;20020;-70
2022/04/22 03:31:05;;;;;;;48.30;32.03;;;10.10;99.90;;;;;;5093257;28;20048;-69
2022/04/22 03:33:31;;;;;;;47.30;31.17;;;10.10;99.90;;;;;;5093323;28;20027;-70
2022/04/22 03:35:56;;;;;;;46.13;30.58;;;10.10;99.90;;;;;;5093188;28;20024;-70
2022/04/22 03:38:22;;;;;;;46.03;30.95;;;10.10;99.90;;;;;;5091982;28;20117;-70
2022/04/22 03:40:49;;;;;;;47.40;30.27;;;10.10;99.90;;;;;;5093176;28;20095;-70
2022/04/22 03:43:15;;;;;;;46.05;30.98;;;10.10;99.90;;;;;;5093158;28;20112;-70
2022/04/22 03:45:42;;;;;;;51.17;31.33;;;10.10;99.90;;;;;;5093102;28;20031;-70
2022/04/22 03:48:09;;;;;;;47.13;31.20;;;10.10;99.90;;;;;;5093050;28;20474;-70
2022/04/22 03:50:36;;;;;;;45.05;30.08;;;10.10;99.90;;;;;;5093374;28;20191;-69
2022/04/22 03:53:03;;;;;;;43.00;30.17;;;10.10;99.90;;;;;;5093342;28;20419;-70
2022/04/22 03:55:29;;;;;;;41.72;29.20;;;10.10;99.90;;;;;;5092072;28;20019;-69
2022/04/22 03:58:10;;;;;;;41.88;28.77;;;10.10;99.90;;;;;;5091803;28;20040;-70
2022/04/22 04:00:44;;;;;;;41.75;28.10;;;10.10;99.90;;;;;;5093033;28;20383;-69
2022/04/22 04:03:11;;;;;;;43.55;27.58;;;10.10;99.90;;;;;;5091681;28;20111;-70
2022/04/22 04:05:38;;;;;;;39.92;27.38;;;10.20;99.90;;;;;;5093008;28;20028;-70
2022/04/22 04:08:04;;;;;;;39.13;26.65;;;10.20;99.90;;;;;;5093259;28;20066;-70
2022/04/22 04:16:02;;;;;;;36.28;24.85;;;10.20;99.90;;;;;;5096609;28;20478;-70
2022/04/22 04:18:31;;;;;;;38.63;26.10;;;10.20;99.90;;;;;;5095540;28;20028;-70
2022/04/22 04:23:43;;;;;;;35.97;23.63;;;10.20;99.90;;;;;;5096460;28;20023;-70
2022/04/22 04:26:09;;;;;;;33.30;23.65;;;10.20;99.90;;;;;;5095089;28;20059;-70
2022/04/22 04:28:36;;;;;;;38.75;24.48;;;10.20;99.90;;;;;;5096584;28;20016;-70
2022/04/22 04:31:02;;;;;;;32.17;23.17;;;10.20;99.90;;;;;;5095375;28;20020;-70
2022/04/22 04:33:29;;;;;;;35.35;23.05;;;10.20;99.90;;;;;;5096391;28;20111;-69
2022/04/22 04:35:55;;;;;;;33.75;22.20;;;10.30;99.90;;;;;;5095160;28;20028;-70
2022/04/22 04:38:22;;;;;;;33.90;22.70;;;10.20;99.90;;;;;;5096328;28;20020;-70
2022/04/22 04:40:48;;;;;;;34.35;23.42;;;10.30;99.90;;;;;;5096530;28;20027;-70
2022/04/22 04:43:13;;;;;;;33.55;23.05;;;10.20;99.90;;;;;;5096316;28;20391;-70
2022/04/22 04:45:39;;;;;;;33.63;22.67;;;10.20;99.90;;;;;;5096280;28;20466;-70
2022/04/22 04:48:05;;;;;;;30.80;22.67;;;10.20;99.90;;;;;;5094925;28;20024;-70
2022/04/22 04:50:31;;;;;;;33.45;22.52;;;10.20;99.90;;;;;;5096230;28;20059;-70
2022/04/22 04:52:57;;;;;;;31.83;21.98;;;10.20;99.90;;;;;;5096064;28;20439;-70
2022/04/22 04:55:22;;;;;;;30.55;20.98;;;10.20;99.90;;;;;;5096010;28;20024;-70
2022/04/22 04:57:48;;;;;;;31.92;21.95;;;10.20;99.90;;;;;;5095975;28;20047;-70
2022/04/22 05:00:15;;;;;;;31.77;22.10;;;10.20;99.90;;;;;;5094663;28;20118;-70
2022/04/22 05:02:40;;;;;;;30.95;21.58;;;10.20;99.90;;;;;;5096094;28;20486;-70
2022/04/22 05:05:06;;;;;;;30.10;22.08;;;10.20;99.90;;;;;;5094640;28;20059;-70
2022/04/22 05:07:33;;;;;;;30.35;20.58;;;10.30;99.90;;;;;;5095806;28;20027;-70
2022/04/22 05:09:59;;;;;;;33.85;22.13;;;10.20;99.90;;;;;;5095712;28;20027;-70
2022/04/22 05:12:25;;;;;;;30.35;21.00;;;10.20;99.90;;;;;;5095711;28;20386;-70
2022/04/22 05:14:50;;;;;;;31.83;22.17;;;10.30;99.90;;;;;;5095668;28;20024;-70
2022/04/22 05:17:16;;;;;;;29.73;21.15;;;10.30;99.90;;;;;;5095599;28;20032;-70
2022/04/22 05:19:41;;;;;;;30.63;21.95;;;10.30;99.90;;;;;;5095470;28;20383;-70
2022/04/22 05:22:07;;;;;;;32.08;21.95;;;10.30;99.90;;;;;;5094512;28;20025;-70
2022/04/22 05:24:34;;;;;;;31.63;21.30;;;10.30;99.90;;;;;;5095681;28;20039;-70
2022/04/22 05:27:00;;;;;;;28.45;20.08;;;10.30;99.90;;;;;;5095303;28;20498;-70
2022/04/22 05:32:47;;;;;;;29.67;21.25;;;10.30;99.90;;;;;;5095108;28;20039;-70
2022/04/22 05:34:57;;;;;;;29.70;21.42;;;10.30;99.90;;;;;;5095029;28;20107;-70
2022/04/22 05:37:22;;;;;;;31.85;21.63;;;10.30;99.90;;;;;;5095385;28;20048;-70
2022/04/22 05:39:48;;;;;;;30.23;21.20;;;10.30;99.90;;;;;;5095187;28;20095;-70
2022/04/22 05:42:13;;;;;;;31.10;21.23;;;10.40;99.90;;;;;;5095106;28;20078;-70
2022/04/22 05:44:39;;;;;;;32.42;21.92;;;10.40;99.90;;;;;;5093896;28;20027;-70
2022/04/22 05:47:06;;;;;;;31.63;21.17;;;10.40;99.90;;;;;;5094980;28;20050;-69
2022/04/22 05:49:32;;;;;;;31.58;21.65;;;10.50;99.90;;;;;;5095169;28;20021;-70
2022/04/22 05:51:57;;;;;;;29.75;21.13;;;10.50;99.90;;;;;;5095161;28;20074;-70
2022/04/22 05:54:23;;;;;;;34.70;22.13;;;10.60;99.90;;;;;;5094728;28;20024;-70
2022/04/22 05:56:48;;;;;;;32.80;21.15;;;10.70;99.90;;;;;;5094662;28;20039;-70
2022/04/22 05:59:14;;;;;;;31.52;20.83;;;10.80;99.90;;;;;;5094725;28;20541;-70
2022/04/22 06:01:39;;;;;;;31.42;21.52;;;10.80;99.90;;;;;;5094700;28;20038;-70
2022/04/22 06:04:05;;;;;;;30.05;21.60;;;10.90;99.90;;;;;;5094628;28;20107;-70
2022/04/22 06:06:30;;;;;;;32.08;21.85;;;11.00;99.90;;;;;;5093337;28;20110;-70
2022/04/22 06:11:41;;;;;;;30.23;21.02;;;11.30;99.90;;;;;;5094207;28;20012;-70
2022/04/22 06:14:09;;;;;;;33.33;22.23;;;11.30;99.90;;;;;;5093179;28;20466;-70
2022/04/22 06:16:35;;;;;;;31.00;22.30;;;11.30;99.90;;;;;;5094403;28;20024;-70
2022/04/22 06:19:00;;;;;;;33.08;22.40;;;11.40;99.90;;;;;;5094351;28;20028;-70
2022/04/22 06:21:26;;;;;;;32.88;22.60;;;11.30;99.90;;;;;;5092881;28;20043;-70
2022/04/22 06:23:51;;;;;;;32.22;23.30;;;11.40;99.90;;;;;;5094203;28;20060;-70
2022/04/22 06:26:17;;;;;;;32.05;23.15;;;11.50;99.90;;;;;;5093896;28;20406;-70
2022/04/22 06:28:42;;;;;;;35.13;23.92;;;11.50;99.90;;;;;;5092939;28;20016;-70
2022/04/22 06:31:08;;;;;;;32.72;22.95;;;11.70;99.90;;;;;;5093432;28;20099;-70
2022/04/22 06:33:34;;;;;;;34.90;24.85;;;11.70;99.90;;;;;;5094049;28;20063;-70
2022/04/22 06:36:03;;;;;;;31.77;23.67;;;11.70;99.90;;;;;;5094267;28;20024;-70
2022/04/22 06:38:29;;;;;;;37.17;24.45;;;11.70;99.90;;;;;;5094190;28;20078;-70
2022/04/22 06:46:26;;;;;;;35.28;24.73;;;12.20;99.90;;;;;;5090975;28;20030;-71
2022/04/22 06:48:52;;;;;;;34.47;24.30;;;12.50;99.90;;;;;;5092967;28;20482;-70
2022/04/22 06:51:19;;;;;;;31.52;23.83;;;12.40;99.90;;;;;;5093130;28;20028;-72
2022/04/22 06:53:45;;;;;;;32.53;24.20;;;12.80;99.90;;;;;;5092768;28;20021;-73
2022/04/22 06:56:13;;;;;;;33.08;24.13;;;12.90;99.90;;;;;;5093136;28;20129;-71
2022/04/22 06:58:40;;;;;;;33.33;25.05;;;13.60;99.90;;;;;;5093083;28;20027;-71
2022/04/22 07:01:07;;;;;;;31.55;22.73;;;13.80;99.90;;;;;;5093068;28;20028;-72
2022/04/22 07:03:33;;;;;;;35.30;24.63;;;13.60;99.90;;;;;;5091833;28;20059;-72
2022/04/22 07:05:59;;;;;;;34.72;24.55;;;13.30;99.90;;;;;;5093414;28;20493;-73
2022/04/22 07:08:24;;;;;;;33.28;25.25;;;13.10;99.90;;;;;;5091072;28;20021;-73
2022/04/22 07:10:52;;;;;;;38.35;27.10;;;12.90;99.90;;;;;;5092878;28;20016;-72
2022/04/22 07:13:18;;;;;;;34.78;26.83;;;12.70;99.90;;;;;;5091485;28;20055;-72
2022/04/22 07:15:45;;;;;;;38.67;26.27;;;12.50;99.90;;;;;;5091776;28;20063;-73
2022/04/22 07:18:11;;;;;;;36.65;25.35;;;12.50;99.90;;;;;;5091274;28;20069;-72
2022/04/22 07:20:39;;;;;;;41.67;27.25;;;12.50;99.90;;;;;;5092706;28;20088;-72
2022/04/22 07:23:05;;;;;;;34.78;24.63;;;12.70;99.90;;;;;;5091320;28;20031;-73
2022/04/22 07:25:31;;;;;;;35.60;24.48;;;12.90;99.90;;;;;;5092004;28;20071;-74
2022/04/22 07:27:58;;;;;;;39.85;24.95;;;13.60;99.90;;;;;;5092479;28;20039;-73
2022/04/22 07:30:24;;;;;;;34.33;24.20;;;14.00;99.90;;;;;;5091832;28;20493;-73
2022/04/22 07:32:50;;;;;;;33.95;23.80;;;14.10;99.90;;;;;;5091124;28;20020;-73
2022/04/22 07:35:18;;;;;;;31.58;24.25;;;14.10;99.90;;;;;;5093176;28;20018;-73
2022/04/22 07:37:48;;;;;;;28.63;22.58;;;14.80;99.90;;;;;;5092971;28;20028;-73
2022/04/22 07:40:16;;;;;;;30.52;23.42;;;15.50;99.90;;;;;;5071335;28;20383;-73
2022/04/22 07:48:20;;;;;;;32.25;22.92;;;15.20;99.90;;;;;;5093316;28;20036;-73
2022/04/22 07:50:47;;;;;;;28.65;23.13;;;15.40;99.90;;;;;;5078466;28;20028;-73
2022/04/22 07:53:16;;;;;;;29.70;23.17;;;14.70;99.90;;;;;;5097164;28;20024;-74
2022/04/22 07:55:42;;;;;;;27.77;22.23;;;14.40;99.90;;;;;;5092778;28;20494;-73
2022/04/22 07:58:10;;;;;;;29.83;22.52;;;15.20;99.90;;;;;;5095312;28;20020;-73
2022/04/22 08:00:38;;;;;;;26.33;21.00;;;14.70;99.90;;;;;;5097125;28;20389;-74
2022/04/22 08:03:04;;;;;;;25.95;20.90;;;16.00;99.90;;;;;;5096832;28;20499;-74
2022/04/22 08:05:30;;;;;;;25.05;20.38;;;16.70;99.90;;;;;;5095709;28;20016;-73
2022/04/22 08:07:56;;;;;;;24.98;19.92;;;17.10;99.90;;;;;;5095287;28;20231;-74
2022/04/22 08:10:22;;;;;;;25.48;21.10;;;16.90;99.90;;;;;;5094956;28;20436;-73
2022/04/22 08:12:47;;;;;;;24.40;19.17;;;18.00;99.90;;;;;;5096540;28;20036;-74
2022/04/22 08:15:13;;;;;;;23.83;19.02;;;18.80;99.90;;;;;;5096398;28;20032;-73
2022/04/22 08:17:39;;;;;;;22.98;19.48;;;17.70;99.90;;;;;;5095282;28;20077;-73
2022/04/22 08:20:05;;;;;;;24.67;19.08;;;17.50;99.90;;;;;;5096057;28;20028;-73
2022/04/22 08:22:32;;;;;;;22.75;18.52;;;16.80;99.90;;;;;;5078520;28;20109;-73
2022/04/22 08:24:57;;;;;;;24.35;18.85;;;16.10;99.90;;;;;;5095983;28;20470;-73
2022/04/22 08:27:26;;;;;;;24.95;19.60;;;16.30;99.90;;;;;;5095954;28;20044;-73
2022/04/22 08:29:52;;;;;;;23.65;18.83;;;16.90;99.90;;;;;;5095493;28;20024;-73
2022/04/22 08:32:17;;;;;;;23.75;18.80;;;17.30;99.90;;;;;;5096007;28;20020;-74
2022/04/22 08:34:44;;;;;;;23.75;17.92;;;17.80;99.90;;;;;;5094799;28;20028;-74
2022/04/22 08:37:10;;;;;;;20.88;17.98;;;18.30;99.90;;;;;;5096310;28;20023;-73
2022/04/22 08:39:36;;;;;;;22.42;18.52;;;17.10;99.90;;;;;;5095849;28;20088;-73
2022/04/22 08:42:03;;;;;;;21.88;18.73;;;15.80;99.90;;;;;;5110716;28;20032;-73
2022/04/22 08:44:29;;;;;;;24.25;19.67;;;15.70;99.90;;;;;;5096326;28;20020;-73
2022/04/22 08:52:26;;;;;;;31.65;20.08;;;15.00;99.90;;;;;;5085928;28;20086;-73
2022/04/22 08:54:53;;;;;;;26.25;19.95;;;14.60;99.90;;;;;;5093815;28;20398;-72
2022/04/22 08:57:20;;;;;;;23.35;18.30;;;14.60;99.90;;;;;;5077910;28;20035;-73
2022/04/22 08:59:46;;;;;;;25.08;19.35;;;14.70;99.90;;;;;;5095945;28;20077;-73
2022/04/22 09:02:15;;;;;;;25.70;19.02;;;14.80;99.90;;;;;;5074916;28;20032;-72
2022/04/22 09:04:41;;;;;;;23.88;19.52;;;14.90;99.90;;;;;;5095173;28;20525;-73
2022/04/22 09:07:12;;;;;;;23.52;18.48;;;14.60;99.90;;;;;;5095695;28;20024;-73
2022/04/22 09:09:39;;;;;;;28.30;19.30;;;14.30;99.90;;;;;;5095645;28;20023;-73
2022/04/22 09:12:09;;;;;;;37.45;20.63;;;14.50;99.90;;;;;;5095291;28;20386;-73
2022/04/22 09:14:35;;;;;;;31.65;19.13;;;14.50;99.90;;;;;;5095651;28;20020;-73
2022/04/22 09:17:01;;;;;;;24.02;18.95;;;14.40;99.90;;;;;;5094134;28;20031;-73
2022/04/22 09:19:33;;;;;;;25.40;18.92;;;14.60;99.90;;;;;;5094956;28;20390;-73
2022/04/22 09:22:01;;;;;;;26.10;18.95;;;14.50;99.90;;;;;;5094158;28;20120;-73
2022/04/22 09:24:27;;;;;;;25.35;17.67;;;14.70;99.90;;;;;;5095254;28;20034;-73
2022/04/22 09:27:08;;;;;;;37.17;19.48;;;15.00;99.90;;;;;;5094990;28;20048;-73
2022/04/22 09:29:43;;;;;;;24.80;18.20;;;14.80;99.90;;;;;;5094211;28;20092;-73
2022/04/22 09:32:11;;;;;;;26.48;19.05;;;14.60;99.90;;;;;;5095430;28;20069;-73
2022/04/22 09:34:37;;;;;;;28.85;19.20;;;14.70;99.90;;;;;;5093957;28;20023;-74
2022/04/22 09:42:53;;;;;;;53.45;22.88;;;14.10;99.90;;;;;;5094328;28;20436;-73
2022/04/22 09:45:20;;;;;;;26.48;19.88;;;14.30;99.90;;;;;;5095080;28;20027;-73
2022/04/22 09:47:57;;;;;;;28.48;20.17;;;14.50;99.90;;;;;;5076878;28;20028;-73
2022/04/22 09:50:41;;;;;;;28.90;21.45;;;14.30;99.90;;;;;;5093700;28;20024;-72
2022/04/22 09:53:08;;;;;;;25.13;20.17;;;14.20;99.90;;;;;;5093775;28;20531;-74
2022/04/22 09:55:37;;;;;;;34.17;20.95;;;14.30;99.90;;;;;;5093672;28;20478;-73
2022/04/22 09:58:02;;;;;;;25.90;19.90;;;14.40;99.90;;;;;;5093767;28;20024;-72
2022/04/22 10:00:30;;;;;;;37.55;20.48;;;14.20;99.90;;;;;;5094743;28;20032;-72
2022/04/22 10:02:57;;;;;;;31.25;21.33;;;14.10;99.90;;;;;;5094696;28;20020;-72
2022/04/22 10:05:24;;;;;;;26.95;20.42;;;14.30;99.90;;;;;;5093079;28;20024;-73
2022/04/22 10:07:52;;;;;;;28.40;19.35;;;14.10;99.90;;;;;;5092536;28;20115;-73
2022/04/22 10:10:23;;;;;;;31.10;20.77;;;14.00;99.90;;;;;;5094393;28;20023;-73
2022/04/22 10:12:49;;;;;;;29.25;20.08;;;14.00;99.90;;;;;;5093386;28;20075;-73
2022/04/22 10:15:17;;;;;;;26.42;19.73;;;14.00;99.90;;;;;;5094449;28;20016;-73
2022/04/22 10:17:45;;;;;;;40.25;22.08;;;14.10;99.90;;;;;;5093211;28;20112;-72
2022/04/22 10:20:11;;;;;;;27.00;19.75;;;14.50;99.90;;;;;;5093235;28;20093;-73
2022/04/22 10:22:41;;;;;;;28.85;20.50;;;14.40;99.90;;;;;;5093191;28;20028;-73
2022/04/22 10:25:09;;;;;;;27.60;20.73;;;14.60;99.90;;;;;;5094313;28;20032;-73
2022/04/22 10:27:35;;;;;;;26.33;18.90;;;14.70;99.90;;;;;;5094034;28;20387;-73
2022/04/22 10:30:01;;;;;;;33.95;20.60;;;14.70;99.90;;;;;;5094154;28;20023;-73
2022/04/22 10:32:28;;;;;;;33.33;20.55;;;14.30;99.90;;;;;;5094087;28;20093;-73
2022/04/22 10:34:58;;;;;;;27.13;20.10;;;14.20;99.90;;;;;;5094106;28;20051;-73
2022/04/22 10:37:26;;;;;;;30.17;20.95;;;14.00;99.90;;;;;;5075866;28;20082;-73
2022/04/22 10:39:54;;;;;;;29.00;20.70;;;13.80;99.90;;;;;;5094020;28;20024;-73
2022/04/22 10:42:29;;;;;;;29.55;19.80;;;13.80;99.90;;;;;;5092749;28;20020;-72
2022/04/22 10:50:37;;;;;;;26.85;18.55;;;13.90;99.90;;;;;;5129554;27;20123;-73
2022/04/22 10:53:05;;;;;;;28.48;19.80;;;13.80;99.90;;;;;;5025795;28;20030;-73
2022/04/22 10:55:46;;;;;;;25.88;18.67;;;13.70;99.90;;;;;;5027021;28;20021;-73
2022/04/22 11:00:52;;;;;;;27.38;19.05;;;13.80;99.90;;;;;;5103042;27;20130;-72
2022/04/22 11:03:21;;;;;;;24.98;18.77;;;14.00;99.90;;;;;;5103111;28;20036;-73
2022/04/22 11:05:50;;;;;;;25.17;18.02;;;13.80;99.90;;;;;;5070392;28;20104;-74
2022/04/22 11:08:17;;;;;;;27.63;18.83;;;14.00;99.90;;;;;;5102219;28;20111;-74
2022/04/22 11:13:33;;;;;;;26.10;18.00;;;14.10;99.90;;;;;;5127036;27;20133;-73
2022/04/22 11:16:12;;;;;;;25.10;18.52;;;14.20;99.90;;;;;;5109691;28;20032;-73
2022/04/22 11:18:40;;;;;;;26.63;17.33;;;14.50;99.90;;;;;;5111053;28;20032;-73
2022/04/22 11:23:48;;;;;;;20.95;15.95;;;15.10;99.90;;;;;;5103074;27;20138;-74
2022/04/22 11:26:16;;;;;;;25.70;17.02;;;15.40;99.90;;;;;;5069076;28;20055;-74
2022/04/22 11:28:44;;;;;;;24.33;17.30;;;15.40;99.90;;;;;;5070450;28;20376;-74
2022/04/22 11:31:11;;;;;;;23.67;17.40;;;15.10;99.90;;;;;;5070376;28;20025;-73
2022/04/22 11:33:52;;;;;;;20.48;16.25;;;15.30;99.90;;;;;;5102921;28;20017;-74
2022/04/22 11:36:17;;;;;;;21.65;16.35;;;15.40;99.90;;;;;;5070376;28;20471;-74
2022/04/22 11:38:47;;;;;;;19.48;15.20;;;16.00;99.90;;;;;;5070315;28;20024;-74
2022/04/22 11:41:13;;;;;;;21.88;16.92;;;16.20;99.90;;;;;;5070222;28;20028;-74
2022/04/22 11:43:39;;;;;;;23.33;15.30;;;16.40;99.90;;;;;;5102540;28;20028;-74
2022/04/22 11:46:04;;;;;;;21.27;15.10;;;16.40;99.90;;;;;;5070117;28;20025;-74
2022/04/22 11:48:31;;;;;;;20.77;14.65;;;16.20;99.90;;;;;;5070010;28;20469;-74
2022/04/22 11:51:00;;;;;;;14.80;13.15;;;16.10;99.90;;;;;;5070007;28;20017;-74
2022/04/22 11:53:29;;;;;;;22.60;14.10;;;16.20;99.90;;;;;;5069905;28;20437;-74
2022/04/22 11:55:55;;;;;;;16.08;13.38;;;16.40;99.90;;;;;;5069812;28;20091;-74
2022/04/22 11:58:24;;;;;;;16.48;13.07;;;15.80;99.90;;;;;;5068591;28;20033;-74
2022/04/22 12:06:23;;;;;;;19.48;13.60;;;15.20;99.90;;;;;;5096565;28;20040;-74
2022/04/22 12:09:06;;;;;;;18.10;13.90;;;15.20;99.90;;;;;;5102341;28;20123;-74
2022/04/22 12:11:41;;;;;;;17.92;14.30;;;15.20;99.90;;;;;;5084897;28;20402;-74
2022/04/22 12:14:07;;;;;;;16.45;12.88;;;15.00;99.90;;;;;;5069581;28;20442;-74
2022/04/22 12:16:33;;;;;;;16.80;14.18;;;14.70;99.90;;;;;;5085171;28;20086;-75
2022/04/22 12:19:00;;;;;;;20.85;15.75;;;14.70;99.90;;;;;;5069450;28;20501;-74
2022/04/22 12:21:30;;;;;;;18.75;14.38;;;14.90;99.90;;;;;;5069101;28;20024;-73
2022/04/22 12:24:02;;;;;;;18.17;14.10;;;15.10;99.90;;;;;;5069246;28;20037;-74
2022/04/22 12:26:33;;;;;;;17.38;14.30;;;14.90;99.90;;;;;;5069193;28;20098;-74
2022/04/22 12:29:01;;;;;;;19.38;13.57;;;15.10;99.90;;;;;;5067880;28;20025;-74
2022/04/22 12:31:29;;;;;;;17.65;13.05;;;15.10;99.90;;;;;;5069104;28;20021;-74
2022/04/22 12:33:58;;;;;;;20.92;14.40;;;15.30;99.90;;;;;;5062835;28;20471;-74
2022/04/22 12:36:23;;;;;;;19.48;14.45;;;15.40;99.90;;;;;;5055806;28;20056;-75
2022/04/22 12:38:49;;;;;;;19.38;14.05;;;15.60;99.90;;;;;;5054476;28;20021;-75
2022/04/22 12:41:22;;;;;;;18.50;14.27;;;16.00;99.90;;;;;;5055763;28;20167;-73
2022/04/22 12:43:50;;;;;;;19.00;13.85;;;15.90;99.90;;;;;;5086393;28;20048;-73
2022/04/22 12:52:14;;;;;;;20.25;15.48;;;15.70;99.90;;;;;;5068303;28;20025;-74
2022/04/22 12:54:42;;;;;;;18.60;14.48;;;15.70;99.90;;;;;;5055684;28;20021;-73
2022/04/22 12:57:19;;;;;;;18.38;14.05;;;15.90;99.90;;;;;;5087585;28;20044;-74
2022/04/22 12:59:49;;;;;;;17.13;13.43;;;15.90;99.90;;;;;;5055423;28;20024;-73
2022/04/22 13:02:15;;;;;;;21.50;13.75;;;15.60;99.90;;;;;;5055440;28;20025;-73
2022/04/22 13:05:00;;;;;;;17.42;14.10;;;15.50;99.90;;;;;;5055408;28;20365;-73
2022/04/22 13:07:41;;;;;;;21.10;14.13;;;15.40;99.90;;;;;;5053683;28;20108;-73
2022/04/22 13:10:09;;;;;;;18.38;14.18;;;15.50;99.90;;;;;;5055725;28;20025;-73
2022/04/22 13:12:39;;;;;;;16.73;14.05;;;15.70;99.90;;;;;;5054139;28;20108;-73
2022/04/22 13:15:06;;;;;;;20.27;15.52;;;15.80;99.90;;;;;;5054170;28;20493;-74
2022/04/22 13:17:31;;;;;;;19.02;14.63;;;15.90;99.90;;;;;;5054124;28;20486;-74
2022/04/22 13:19:57;;;;;;;19.13;13.82;;;16.10;99.90;;;;;;5055493;28;20025;-74
2022/04/22 13:22:22;;;;;;;17.50;13.45;;;16.00;99.90;;;;;;5087347;28;20053;-73
2022/04/22 13:24:48;;;;;;;20.48;14.82;;;15.70;99.90;;;;;;5087491;28;20099;-73
2022/04/22 13:27:14;;;;;;;20.52;14.43;;;15.50;99.90;;;;;;5055244;28;20021;-73
2022/04/22 13:29:40;;;;;;;19.20;15.25;;;15.50;99.90;;;;;;5055265;28;20041;-74
2022/04/22 13:32:08;;;;;;;18.02;14.55;;;15.80;99.90;;;;;;5055332;28;20075;-73
2022/04/22 13:34:33;;;;;;;18.38;14.52;;;15.80;99.90;;;;;;5054985;28;20471;-74
2022/04/22 13:36:59;;;;;;;21.15;16.17;;;16.20;99.90;;;;;;5087295;28;20021;-74
2022/04/22 13:39:24;;;;;;;18.42;14.73;;;16.20;99.90;;;;;;5054966;28;20033;-74
2022/04/22 13:41:50;;;;;;;22.15;16.70;;;16.20;99.90;;;;;;5055034;28;20025;-73